sensor_id;sensor_type;location;lat;lon;timestamp;pressure;altitude;pressure_sealevel;temperature;humidity
17635;BME280;8936;49.010;12.120;2023-06-10T00:01:24;97543.06;;;23.13;96.49
17635;BME280;8936;49.010;12.120;2023-06-10T00:03:50;97538.59;;;23.05;96.66
17635;BME280;8936;49.010;12.120;2023-06-10T00:06:16;97553.00;;;22.31;100.00
17635;BME280;8936;49.010;12.120;2023-06-10T00:08:43;97545.34;;;22.36;100.00
17635;BME280;8936;49.010;12.120;2023-06-10T00:11:12;97551.44;;;21.90;100.00
17635;BME280;8936;49.010;12.120;2023-06-10T00:13:43;97561.00;;;21.72;100.00
17635;BME280;8936;49.010;12.120;2023-06-10T00:16:15;97557.63;;;21.02;100.00
17635;BME280;8936;49.010;12.120;2023-06-10T00:18:43;97558.81;;;20.56;100.00
17635;BME280;8936;49.010;12.120;2023-06-10T00:21:09;97573.84;;;20.21;100.00
17635;BME280;8936;49.010;12.120;2023-06-10T00:23:38;97558.31;;;21.23;100.00
17635;BME280;8936;49.010;12.120;2023-06-10T00:26:06;97559.34;;;21.19;100.00
17635;BME280;8936;49.010;12.120;2023-06-10T00:28:33;97562.59;;;21.00;100.00
17635;BME280;8936;49.010;12.120;2023-06-10T00:31:01;97556.84;;;21.50;100.00
17635;BME280;8936;49.010;12.120;2023-06-10T00:33:29;97563.16;;;21.42;100.00
17635;BME280;8936;49.010;12.120;2023-06-10T00:35:56;97558.09;;;21.04;100.00
17635;BME280;8936;49.010;12.120;2023-06-10T00:38:22;97558.47;;;21.79;100.00
17635;BME280;8936;49.010;12.120;2023-06-10T00:40:48;97558.19;;;21.56;100.00
17635;BME280;8936;49.010;12.120;2023-06-10T00:43:15;97551.06;;;21.39;100.00
17635;BME280;8936;49.010;12.120;2023-06-10T00:45:41;97558.72;;;20.77;100.00
17635;BME280;8936;49.010;12.120;2023-06-10T00:48:09;97551.94;;;20.71;100.00
17635;BME280;8936;49.010;12.120;2023-06-10T00:50:35;97550.94;;;20.99;100.00
17635;BME280;8936;49.010;12.120;2023-06-10T00:53:04;97555.38;;;20.92;100.00
17635;BME280;8936;49.010;12.120;2023-06-10T00:55:30;97562.34;;;20.81;100.00
17635;BME280;8936;49.010;12.120;2023-06-10T00:57:57;97559.63;;;20.69;100.00
17635;BME280;8936;49.010;12.120;2023-06-10T01:00:24;97541.78;;;21.52;100.00
17635;BME280;8936;49.010;12.120;2023-06-10T01:02:51;97531.50;;;21.86;100.00
17635;BME280;8936;49.010;12.120;2023-06-10T01:05:18;97536.97;;;22.14;100.00
17635;BME280;8936;49.010;12.120;2023-06-10T01:07:48;97533.88;;;22.43;100.00
17635;BME280;8936;49.010;12.120;2023-06-10T01:10:20;97533.78;;;22.39;100.00
17635;BME280;8936;49.010;12.120;2023-06-10T01:12:49;97539.84;;;22.48;100.00
17635;BME280;8936;49.010;12.120;2023-06-10T01:15:18;97537.59;;;22.66;100.00
17635;BME280;8936;49.010;12.120;2023-06-10T01:17:55;97534.44;;;22.64;100.00
17635;BME280;8936;49.010;12.120;2023-06-10T01:20:24;97543.44;;;21.69;100.00
17635;BME280;8936;49.010;12.120;2023-06-10T01:22:53;97550.84;;;21.08;100.00
17635;BME280;8936;49.010;12.120;2023-06-10T01:25:19;97559.41;;;20.86;100.00
17635;BME280;8936;49.010;12.120;2023-06-10T01:27:52;97547.47;;;21.11;100.00
17635;BME280;8936;49.010;12.120;2023-06-10T01:30:19;97557.59;;;20.78;100.00
17635;BME280;8936;49.010;12.120;2023-06-10T01:32:51;97558.81;;;20.56;100.00
17635;BME280;8936;49.010;12.120;2023-06-10T01:35:17;97552.66;;;20.14;100.00
17635;BME280;8936;49.010;12.120;2023-06-10T01:37:45;97566.63;;;20.04;100.00
17635;BME280;8936;49.010;12.120;2023-06-10T01:40:13;97562.63;;;20.22;100.00
17635;BME280;8936;49.010;12.120;2023-06-10T01:42:40;97568.94;;;20.14;100.00
17635;BME280;8936;49.010;12.120;2023-06-10T01:45:06;97565.16;;;20.07;100.00
17635;BME280;8936;49.010;12.120;2023-06-10T01:47:33;97562.63;;;20.22;100.00
17635;BME280;8936;49.010;12.120;2023-06-10T01:49:59;97550.69;;;20.80;100.00
17635;BME280;8936;49.010;12.120;2023-06-10T01:52:26;97558.78;;;21.37;100.00
17635;BME280;8936;49.010;12.120;2023-06-10T01:54:53;97562.97;;;21.23;100.00
17635;BME280;8936;49.010;12.120;2023-06-10T01:57:20;97568.00;;;20.76;100.00
17635;BME280;8936;49.010;12.120;2023-06-10T01:59:47;97574.50;;;20.51;100.00
17635;BME280;8936;49.010;12.120;2023-06-10T02:02:13;97568.06;;;20.22;100.00
17635;BME280;8936;49.010;12.120;2023-06-10T02:04:40;97564.22;;;20.23;100.00
17635;BME280;8936;49.010;12.120;2023-06-10T02:07:06;97574.22;;;20.31;100.00
17635;BME280;8936;49.010;12.120;2023-06-10T02:09:33;97565.50;;;20.26;100.00
17635;BME280;8936;49.010;12.120;2023-06-10T02:12:00;97570.72;;;20.10;100.00
17635;BME280;8936;49.010;12.120;2023-06-10T02:14:28;97572.44;;;19.94;100.00
17635;BME280;8936;49.010;12.120;2023-06-10T02:16:55;97576.00;;;19.65;100.00
17635;BME280;8936;49.010;12.120;2023-06-10T02:19:22;97565.97;;;19.66;100.00
17635;BME280;8936;49.010;12.120;2023-06-10T02:21:50;97573.09;;;19.50;100.00
17635;BME280;8936;49.010;12.120;2023-06-10T02:24:16;97567.28;;;19.60;100.00
17635;BME280;8936;49.010;12.120;2023-06-10T02:26:43;97571.00;;;19.76;100.00
17635;BME280;8936;49.010;12.120;2023-06-10T02:29:10;97567.91;;;19.86;100.00
17635;BME280;8936;49.010;12.120;2023-06-10T02:31:38;97568.63;;;20.49;100.00
17635;BME280;8936;49.010;12.120;2023-06-10T02:34:04;97568.16;;;21.40;100.00
17635;BME280;8936;49.010;12.120;2023-06-10T02:36:31;97571.50;;;21.73;100.00
17635;BME280;8936;49.010;12.120;2023-06-10T02:38:57;97568.75;;;21.97;100.00
17635;BME280;8936;49.010;12.120;2023-06-10T02:41:23;97568.72;;;22.10;100.00
17635;BME280;8936;49.010;12.120;2023-06-10T02:43:50;97568.91;;;22.17;100.00
17635;BME280;8936;49.010;12.120;2023-06-10T02:46:16;97565.84;;;22.18;100.00
17635;BME280;8936;49.010;12.120;2023-06-10T02:48:45;97574.53;;;22.24;100.00
17635;BME280;8936;49.010;12.120;2023-06-10T02:51:11;97569.22;;;22.27;100.00
17635;BME280;8936;49.010;12.120;2023-06-10T02:53:38;97569.22;;;22.27;100.00
17635;BME280;8936;49.010;12.120;2023-06-10T02:56:04;97571.47;;;22.25;100.00
17635;BME280;8936;49.010;12.120;2023-06-10T02:58:30;97569.00;;;22.20;100.00
17635;BME280;8936;49.010;12.120;2023-06-10T03:00:57;97568.09;;;22.16;100.00
17635;BME280;8936;49.010;12.120;2023-06-10T03:03:24;97568.94;;;22.04;100.00
17635;BME280;8936;49.010;12.120;2023-06-10T03:05:52;97570.19;;;21.43;100.00
17635;BME280;8936;49.010;12.120;2023-06-10T03:08:18;97561.88;;;21.76;100.00
17635;BME280;8936;49.010;12.120;2023-06-10T03:10:44;97572.72;;;21.88;100.00
17635;BME280;8936;49.010;12.120;2023-06-10T03:13:11;97560.34;;;22.02;100.00
17635;BME280;8936;49.010;12.120;2023-06-10T03:15:37;97567.94;;;22.09;100.00
17635;BME280;8936;49.010;12.120;2023-06-10T03:18:05;97567.69;;;22.14;100.00
17635;BME280;8936;49.010;12.120;2023-06-10T03:20:33;97562.72;;;22.04;100.00
17635;BME280;8936;49.010;12.120;2023-06-10T03:23:05;97565.44;;;22.04;100.00
17635;BME280;8936;49.010;12.120;2023-06-10T03:25:32;97568.00;;;21.61;100.00
17635;BME280;8936;49.010;12.120;2023-06-10T03:27:58;97567.59;;;21.34;100.00
17635;BME280;8936;49.010;12.120;2023-06-10T03:30:25;97567.94;;;21.09;100.00
17635;BME280;8936;49.010;12.120;2023-06-10T03:32:51;97570.78;;;21.24;100.00
17635;BME280;8936;49.010;12.120;2023-06-10T03:35:17;97564.91;;;21.10;100.00
17635;BME280;8936;49.010;12.120;2023-06-10T03:37:44;97576.63;;;20.90;100.00
17635;BME280;8936;49.010;12.120;2023-06-10T03:40:11;97570.34;;;20.65;100.00
17635;BME280;8936;49.010;12.120;2023-06-10T03:42:38;97575.25;;;20.27;100.00
17635;BME280;8936;49.010;12.120;2023-06-10T03:45:05;97582.63;;;19.97;100.00
17635;BME280;8936;49.010;12.120;2023-06-10T03:47:33;97587.66;;;20.07;100.00
17635;BME280;8936;49.010;12.120;2023-06-10T03:49:59;97583.69;;;19.84;100.00
17635;BME280;8936;49.010;12.120;2023-06-10T03:52:26;97588.63;;;20.03;100.00
17635;BME280;8936;49.010;12.120;2023-06-10T03:54:52;97589.63;;;19.57;100.00
17635;BME280;8936;49.010;12.120;2023-06-10T03:57:20;97592.84;;;19.50;100.00
17635;BME280;8936;49.010;12.120;2023-06-10T03:59:46;97595.25;;;19.93;100.00
17635;BME280;8936;49.010;12.120;2023-06-10T04:02:13;97594.63;;;19.37;100.00
17635;BME280;8936;49.010;12.120;2023-06-10T04:04:40;97597.63;;;19.15;100.00
17635;BME280;8936;49.010;12.120;2023-06-10T04:07:06;97601.00;;;19.71;100.00
17635;BME280;8936;49.010;12.120;2023-06-10T04:09:33;97604.03;;;19.69;100.00
17635;BME280;8936;49.010;12.120;2023-06-10T04:12:00;97604.69;;;19.66;100.00
17635;BME280;8936;49.010;12.120;2023-06-10T04:14:28;97605.16;;;20.10;100.00
17635;BME280;8936;49.010;12.120;2023-06-10T04:16:55;97596.41;;;20.25;100.00
17635;BME280;8936;49.010;12.120;2023-06-10T04:19:21;97598.38;;;19.83;100.00
17635;BME280;8936;49.010;12.120;2023-06-10T04:21:48;97600.66;;;19.52;100.00
17635;BME280;8936;49.010;12.120;2023-06-10T04:24:14;97609.53;;;19.23;100.00
17635;BME280;8936;49.010;12.120;2023-06-10T04:26:41;97607.63;;;19.23;100.00
17635;BME280;8936;49.010;12.120;2023-06-10T04:29:07;97613.28;;;19.01;100.00
17635;BME280;8936;49.010;12.120;2023-06-10T04:31:35;97605.22;;;18.93;100.00
17635;BME280;8936;49.010;12.120;2023-06-10T04:34:01;97602.28;;;18.60;100.00
17635;BME280;8936;49.010;12.120;2023-06-10T04:36:27;97617.41;;;18.44;100.00
17635;BME280;8936;49.010;12.120;2023-06-10T04:38:55;97608.16;;;18.45;100.00
17635;BME280;8936;49.010;12.120;2023-06-10T04:41:21;97609.28;;;18.44;100.00
17635;BME280;8936;49.010;12.120;2023-06-10T04:43:48;97600.66;;;18.67;100.00
17635;BME280;8936;49.010;12.120;2023-06-10T04:46:14;97599.44;;;18.56;100.00
17635;BME280;8936;49.010;12.120;2023-06-10T04:48:42;97598.59;;;18.64;100.00
17635;BME280;8936;49.010;12.120;2023-06-10T04:51:09;97601.34;;;19.02;100.00
17635;BME280;8936;49.010;12.120;2023-06-10T04:53:36;97603.56;;;19.09;100.00
17635;BME280;8936;49.010;12.120;2023-06-10T04:56:02;97605.28;;;19.72;100.00
17635;BME280;8936;49.010;12.120;2023-06-10T04:58:29;97604.97;;;20.35;100.00
17635;BME280;8936;49.010;12.120;2023-06-10T05:00:55;97611.72;;;19.67;100.00
17635;BME280;8936;49.010;12.120;2023-06-10T05:03:22;97600.56;;;19.39;100.00
17635;BME280;8936;49.010;12.120;2023-06-10T05:05:49;97616.59;;;19.74;100.00
17635;BME280;8936;49.010;12.120;2023-06-10T05:08:16;97609.16;;;19.42;100.00
17635;BME280;8936;49.010;12.120;2023-06-10T05:10:42;97603.38;;;19.52;100.00
17635;BME280;8936;49.010;12.120;2023-06-10T05:13:08;97611.00;;;19.50;100.00
17635;BME280;8936;49.010;12.120;2023-06-10T05:15:35;97613.13;;;19.35;100.00
17635;BME280;8936;49.010;12.120;2023-06-10T05:18:02;97618.00;;;19.13;100.00
17635;BME280;8936;49.010;12.120;2023-06-10T05:20:28;97613.78;;;19.03;100.00
17635;BME280;8936;49.010;12.120;2023-06-10T05:22:56;97619.19;;;18.95;100.00
17635;BME280;8936;49.010;12.120;2023-06-10T05:25:22;97615.28;;;19.21;100.00
17635;BME280;8936;49.010;12.120;2023-06-10T05:27:49;97616.41;;;19.50;100.00
17635;BME280;8936;49.010;12.120;2023-06-10T05:30:15;97608.69;;;20.10;100.00
17635;BME280;8936;49.010;12.120;2023-06-10T05:32:43;97602.72;;;20.37;100.00
17635;BME280;8936;49.010;12.120;2023-06-10T05:35:10;97612.97;;;20.65;100.00
17635;BME280;8936;49.010;12.120;2023-06-10T05:37:36;97616.84;;;20.64;100.00
17635;BME280;8936;49.010;12.120;2023-06-10T05:40:04;97620.00;;;20.66;100.00
17635;BME280;8936;49.010;12.120;2023-06-10T05:42:31;97617.56;;;20.85;100.00
17635;BME280;8936;49.010;12.120;2023-06-10T05:44:58;97616.66;;;21.05;100.00
17635;BME280;8936;49.010;12.120;2023-06-10T05:47:24;97607.56;;;21.34;100.00
17635;BME280;8936;49.010;12.120;2023-06-10T05:49:50;97609.69;;;21.65;100.00
17635;BME280;8936;49.010;12.120;2023-06-10T05:52:17;97612.81;;;21.79;100.00
17635;BME280;8936;49.010;12.120;2023-06-10T05:54:43;97606.47;;;21.87;100.00
17635;BME280;8936;49.010;12.120;2023-06-10T05:57:11;97614.88;;;21.94;100.00
17635;BME280;8936;49.010;12.120;2023-06-10T05:59:37;97606.28;;;22.20;100.00
17635;BME280;8936;49.010;12.120;2023-06-10T06:02:04;97598.66;;;22.37;100.00
17635;BME280;8936;49.010;12.120;2023-06-10T06:04:31;97606.66;;;22.46;100.00
17635;BME280;8936;49.010;12.120;2023-06-10T06:06:57;97594.72;;;22.23;100.00
17635;BME280;8936;49.010;12.120;2023-06-10T06:09:23;97596.00;;;22.41;100.00
17635;BME280;8936;49.010;12.120;2023-06-10T06:11:50;97592.84;;;22.67;100.00
17635;BME280;8936;49.010;12.120;2023-06-10T06:14:18;97593.69;;;22.55;100.00
17635;BME280;8936;49.010;12.120;2023-06-10T06:16:44;97589.53;;;22.73;100.00
17635;BME280;8936;49.010;12.120;2023-06-10T06:19:10;97595.59;;;22.98;100.00
17635;BME280;8936;49.010;12.120;2023-06-10T06:21:37;97593.75;;;23.18;100.00
17635;BME280;8936;49.010;12.120;2023-06-10T06:24:03;97596.41;;;23.14;100.00
17635;BME280;8936;49.010;12.120;2023-06-10T06:26:30;97593.41;;;23.19;100.00
17635;BME280;8936;49.010;12.120;2023-06-10T06:28:56;97596.66;;;23.40;100.00
17635;BME280;8936;49.010;12.120;2023-06-10T06:31:24;97598.84;;;23.50;100.00
17635;BME280;8936;49.010;12.120;2023-06-10T06:33:50;97600.94;;;22.94;100.00
17635;BME280;8936;49.010;12.120;2023-06-10T06:36:16;97603.59;;;23.22;100.00
17635;BME280;8936;49.010;12.120;2023-06-10T06:38:43;97596.31;;;23.42;100.00
17635;BME280;8936;49.010;12.120;2023-06-10T06:41:09;97601.28;;;23.55;100.00
17635;BME280;8936;49.010;12.120;2023-06-10T06:43:35;97591.66;;;23.27;100.00
17635;BME280;8936;49.010;12.120;2023-06-10T06:46:15;97601.47;;;23.31;100.00
17635;BME280;8936;49.010;12.120;2023-06-10T06:48:43;97601.28;;;23.24;100.00
17635;BME280;8936;49.010;12.120;2023-06-10T06:51:09;97591.81;;;23.49;100.00
17635;BME280;8936;49.010;12.120;2023-06-10T06:53:35;97600.06;;;23.37;100.00
17635;BME280;8936;49.010;12.120;2023-06-10T06:56:07;97606.03;;;23.58;100.00
17635;BME280;8936;49.010;12.120;2023-06-10T06:58:34;97604.81;;;23.56;100.00
17635;BME280;8936;49.010;12.120;2023-06-10T07:01:00;97604.28;;;23.50;100.00
17635;BME280;8936;49.010;12.120;2023-06-10T07:03:26;97607.66;;;23.79;100.00
17635;BME280;8936;49.010;12.120;2023-06-10T07:05:54;97611.06;;;23.91;100.00
17635;BME280;8936;49.010;12.120;2023-06-10T07:08:21;97602.16;;;23.59;100.00
17635;BME280;8936;49.010;12.120;2023-06-10T07:10:47;97604.28;;;23.50;100.00
17635;BME280;8936;49.010;12.120;2023-06-10T07:13:14;97615.00;;;23.12;100.00
17635;BME280;8936;49.010;12.120;2023-06-10T07:15:40;97611.75;;;23.22;100.00
17635;BME280;8936;49.010;12.120;2023-06-10T07:18:07;97610.25;;;23.25;100.00
17635;BME280;8936;49.010;12.120;2023-06-10T07:20:33;97607.91;;;23.54;100.00
17635;BME280;8936;49.010;12.120;2023-06-10T07:23:01;97611.22;;;23.63;100.00
17635;BME280;8936;49.010;12.120;2023-06-10T07:25:27;97610.53;;;23.51;100.00
17635;BME280;8936;49.010;12.120;2023-06-10T07:27:53;97609.22;;;23.60;100.00
17635;BME280;8936;49.010;12.120;2023-06-10T07:30:20;97621.88;;;23.53;100.00
17635;BME280;8936;49.010;12.120;2023-06-10T07:32:46;97617.75;;;23.43;100.00
17635;BME280;8936;49.010;12.120;2023-06-10T07:35:13;97621.84;;;23.37;100.00
17635;BME280;8936;49.010;12.120;2023-06-10T07:37:40;97618.53;;;23.44;100.00
17635;BME280;8936;49.010;12.120;2023-06-10T07:40:08;97629.22;;;23.37;100.00
17635;BME280;8936;49.010;12.120;2023-06-10T07:42:35;97619.84;;;23.34;100.00
17635;BME280;8936;49.010;12.120;2023-06-10T07:45:01;97620.03;;;23.10;100.00
17635;BME280;8936;49.010;12.120;2023-06-10T07:47:28;97627.91;;;23.15;100.00
17635;BME280;8936;49.010;12.120;2023-06-10T07:49:55;97621.78;;;23.18;100.00
17635;BME280;8936;49.010;12.120;2023-06-10T07:52:21;97627.31;;;23.06;100.00
17635;BME280;8936;49.010;12.120;2023-06-10T07:54:47;97619.59;;;23.08;100.00
17635;BME280;8936;49.010;12.120;2023-06-10T07:57:15;97621.50;;;22.92;100.00
17635;BME280;8936;49.010;12.120;2023-06-10T07:59:41;97627.25;;;23.02;100.00
17635;BME280;8936;49.010;12.120;2023-06-10T08:02:09;97627.56;;;23.01;100.00
17635;BME280;8936;49.010;12.120;2023-06-10T08:04:35;97633.72;;;22.98;100.00
17635;BME280;8936;49.010;12.120;2023-06-10T08:07:02;97626.06;;;22.88;100.00
17635;BME280;8936;49.010;12.120;2023-06-10T08:09:28;97630.38;;;22.89;100.00
17635;BME280;8936;49.010;12.120;2023-06-10T08:11:55;97634.69;;;22.90;100.00
17635;BME280;8936;49.010;12.120;2023-06-10T08:14:23;97636.34;;;22.94;100.00
17635;BME280;8936;49.010;12.120;2023-06-10T08:16:49;97632.59;;;22.99;100.00
17635;BME280;8936;49.010;12.120;2023-06-10T08:19:15;97639.53;;;23.12;100.00
17635;BME280;8936;49.010;12.120;2023-06-10T08:21:42;97630.13;;;23.25;100.00
17635;BME280;8936;49.010;12.120;2023-06-10T08:24:08;97641.84;;;23.41;100.00
17635;BME280;8936;49.010;12.120;2023-06-10T08:26:35;97638.06;;;23.46;100.00
17635;BME280;8936;49.010;12.120;2023-06-10T08:29:01;97645.09;;;23.47;100.00
17635;BME280;8936;49.010;12.120;2023-06-10T08:31:29;97638.66;;;23.24;100.00
17635;BME280;8936;49.010;12.120;2023-06-10T08:33:55;97650.81;;;23.42;100.00
17635;BME280;8936;49.010;12.120;2023-06-10T08:36:22;97647.38;;;23.45;100.00
17635;BME280;8936;49.010;12.120;2023-06-10T08:38:48;97646.22;;;23.46;100.00
17635;BME280;8936;49.010;12.120;2023-06-10T08:41:14;97648.50;;;23.59;100.00
17635;BME280;8936;49.010;12.120;2023-06-10T08:43:44;97645.06;;;23.62;100.00
17635;BME280;8936;49.010;12.120;2023-06-10T08:46:11;97639.56;;;23.43;100.00
17635;BME280;8936;49.010;12.120;2023-06-10T08:48:42;97643.56;;;23.34;100.00
17635;BME280;8936;49.010;12.120;2023-06-10T08:51:10;97643.94;;;23.32;100.00
17635;BME280;8936;49.010;12.120;2023-06-10T08:53:37;97644.22;;;23.27;100.00
17635;BME280;8936;49.010;12.120;2023-06-10T08:56:04;97640.13;;;23.21;100.00
17635;BME280;8936;49.010;12.120;2023-06-10T08:58:31;97640.78;;;23.30;100.00
17635;BME280;8936;49.010;12.120;2023-06-10T09:01:00;97648.59;;;23.16;100.00
17635;BME280;8936;49.010;12.120;2023-06-10T09:03:27;97633.34;;;22.99;100.00
17635;BME280;8936;49.010;12.120;2023-06-10T09:05:55;97633.66;;;23.10;100.00
17635;BME280;8936;49.010;12.120;2023-06-10T09:08:22;97634.25;;;23.35;100.00
17635;BME280;8936;49.010;12.120;2023-06-10T09:10:49;97639.78;;;23.38;100.00
17635;BME280;8936;49.010;12.120;2023-06-10T09:13:15;97641.41;;;23.39;100.00
17635;BME280;8936;49.010;12.120;2023-06-10T09:15:43;97639.22;;;23.45;100.00
17635;BME280;8936;49.010;12.120;2023-06-10T09:18:11;97633.25;;;23.39;100.00
17635;BME280;8936;49.010;12.120;2023-06-10T09:20:38;97640.25;;;23.56;100.00
17635;BME280;8936;49.010;12.120;2023-06-10T09:23:06;97638.56;;;23.67;100.00
17635;BME280;8936;49.010;12.120;2023-06-10T09:25:36;97644.78;;;23.67;100.00
17635;BME280;8936;49.010;12.120;2023-06-10T09:28:03;97643.28;;;23.86;100.00
17635;BME280;8936;49.010;12.120;2023-06-10T09:30:30;97645.56;;;23.84;97.24
17635;BME280;8936;49.010;12.120;2023-06-10T09:32:57;97642.25;;;23.75;97.34
17635;BME280;8936;49.010;12.120;2023-06-10T09:35:24;97638.38;;;23.76;98.67
17635;BME280;8936;49.010;12.120;2023-06-10T09:37:51;97637.75;;;23.82;99.30
17635;BME280;8936;49.010;12.120;2023-06-10T09:40:19;97641.06;;;23.91;98.54
17635;BME280;8936;49.010;12.120;2023-06-10T09:42:45;97635.53;;;23.88;98.92
17635;BME280;8936;49.010;12.120;2023-06-10T09:45:18;97637.34;;;23.99;99.30
17635;BME280;8936;49.010;12.120;2023-06-10T09:47:45;97637.53;;;23.91;97.05
17635;BME280;8936;49.010;12.120;2023-06-10T09:50:12;97642.16;;;23.71;98.08
17635;BME280;8936;49.010;12.120;2023-06-10T09:52:38;97650.25;;;23.67;99.36
17635;BME280;8936;49.010;12.120;2023-06-10T09:55:07;97647.53;;;23.67;100.00
17635;BME280;8936;49.010;12.120;2023-06-10T09:57:35;97660.03;;;23.53;100.00
17635;BME280;8936;49.010;12.120;2023-06-10T10:00:04;97649.72;;;23.62;100.00
17635;BME280;8936;49.010;12.120;2023-06-10T10:02:30;97635.06;;;23.67;100.00
17635;BME280;8936;49.010;12.120;2023-06-10T10:05:01;97649.13;;;23.69;100.00
17635;BME280;8936;49.010;12.120;2023-06-10T10:07:27;97644.75;;;23.64;100.00
17635;BME280;8936;49.010;12.120;2023-06-10T10:09:54;97650.72;;;23.54;100.00
17635;BME280;8936;49.010;12.120;2023-06-10T10:12:20;97650.63;;;23.66;100.00
17635;BME280;8936;49.010;12.120;2023-06-10T10:14:48;97658.09;;;23.53;100.00
17635;BME280;8936;49.010;12.120;2023-06-10T10:17:16;97659.34;;;23.40;100.00
17635;BME280;8936;49.010;12.120;2023-06-10T10:19:43;97649.56;;;23.24;100.00
17635;BME280;8936;49.010;12.120;2023-06-10T10:22:15;97650.78;;;23.26;100.00
17635;BME280;8936;49.010;12.120;2023-06-10T10:24:45;97653.44;;;23.38;100.00
17635;BME280;8936;49.010;12.120;2023-06-10T10:27:14;97652.66;;;23.53;100.00
17635;BME280;8936;49.010;12.120;2023-06-10T10:29:43;97645.78;;;23.59;100.00
17635;BME280;8936;49.010;12.120;2023-06-10T10:32:13;97647.53;;;23.67;100.00
17635;BME280;8936;49.010;12.120;2023-06-10T10:34:42;97642.00;;;23.64;100.00
17635;BME280;8936;49.010;12.120;2023-06-10T10:37:09;97644.97;;;23.75;100.00
17635;BME280;8936;49.010;12.120;2023-06-10T10:39:36;97644.97;;;23.75;100.00
17635;BME280;8936;49.010;12.120;2023-06-10T10:42:02;97651.75;;;23.65;100.00
17635;BME280;8936;49.010;12.120;2023-06-10T10:44:29;97650.44;;;23.43;100.00
17635;BME280;8936;49.010;12.120;2023-06-10T10:46:56;97646.88;;;23.55;100.00
17635;BME280;8936;49.010;12.120;2023-06-10T10:49:26;97654.66;;;23.72;100.00
17635;BME280;8936;49.010;12.120;2023-06-10T10:51:56;97650.31;;;23.87;100.00
17635;BME280;8936;49.010;12.120;2023-06-10T10:54:32;97644.50;;;23.88;100.00
17635;BME280;8936;49.010;12.120;2023-06-10T10:57:11;97652.19;;;23.83;100.00
17635;BME280;8936;49.010;12.120;2023-06-10T10:59:44;97649.59;;;23.90;100.00
17635;BME280;8936;49.010;12.120;2023-06-10T11:02:14;97643.75;;;23.72;100.00
17635;BME280;8936;49.010;12.120;2023-06-10T11:04:45;97651.06;;;23.52;100.00
17635;BME280;8936;49.010;12.120;2023-06-10T11:07:12;97656.94;;;23.39;100.00
17635;BME280;8936;49.010;12.120;2023-06-10T11:09:40;97648.50;;;23.59;100.00
17635;BME280;8936;49.010;12.120;2023-06-10T11:12:23;97645.34;;;23.92;100.00
17635;BME280;8936;49.010;12.120;2023-06-10T11:14:53;97641.06;;;24.26;100.00
17635;BME280;8936;49.010;12.120;2023-06-10T11:17:20;97644.66;;;24.49;100.00
17635;BME280;8936;49.010;12.120;2023-06-10T11:19:48;97638.47;;;24.52;97.98
17635;BME280;8936;49.010;12.120;2023-06-10T11:22:16;97631.72;;;24.65;96.94
17635;BME280;8936;49.010;12.120;2023-06-10T11:24:45;97635.97;;;24.63;97.03
17635;BME280;8936;49.010;12.120;2023-06-10T11:27:17;97637.25;;;24.50;98.11
17635;BME280;8936;49.010;12.120;2023-06-10T11:29:57;97641.78;;;24.42;96.89
17635;BME280;8936;49.010;12.120;2023-06-10T11:32:23;97630.50;;;24.25;97.97
17635;BME280;8936;49.010;12.120;2023-06-10T11:34:53;97635.03;;;24.36;97.10
17635;BME280;8936;49.010;12.120;2023-06-10T11:37:20;97629.88;;;24.50;96.32
17635;BME280;8936;49.010;12.120;2023-06-10T11:39:46;97638.25;;;24.42;100.00
17635;BME280;8936;49.010;12.120;2023-06-10T11:42:13;97627.69;;;24.21;100.00
17635;BME280;8936;49.010;12.120;2023-06-10T11:44:47;97630.44;;;24.21;100.00
17635;BME280;8936;49.010;12.120;2023-06-10T11:47:14;97625.53;;;24.11;100.00
17635;BME280;8936;49.010;12.120;2023-06-10T11:49:40;97622.66;;;24.42;100.00
17635;BME280;8936;49.010;12.120;2023-06-10T11:52:08;97621.44;;;24.40;100.00
17635;BME280;8936;49.010;12.120;2023-06-10T11:54:35;97626.56;;;24.41;100.00
17635;BME280;8936;49.010;12.120;2023-06-10T11:57:02;97619.59;;;24.44;100.00
17635;BME280;8936;49.010;12.120;2023-06-10T11:59:29;97608.75;;;24.28;100.00
17635;BME280;8936;49.010;12.120;2023-06-10T12:01:55;97618.50;;;24.48;100.00
17635;BME280;8936;49.010;12.120;2023-06-10T12:04:22;97615.91;;;24.36;100.00
17635;BME280;8936;49.010;12.120;2023-06-10T12:06:49;97618.44;;;24.45;100.00
17635;BME280;8936;49.010;12.120;2023-06-10T12:09:18;97615.59;;;24.80;99.43
17635;BME280;8936;49.010;12.120;2023-06-10T12:11:44;97607.13;;;25.07;96.35
17635;BME280;8936;49.010;12.120;2023-06-10T12:14:11;97610.19;;;25.29;94.60
17635;BME280;8936;49.010;12.120;2023-06-10T12:16:37;97605.13;;;25.27;90.40
17635;BME280;8936;49.010;12.120;2023-06-10T12:19:04;97603.59;;;25.30;92.46
17635;BME280;8936;49.010;12.120;2023-06-10T12:21:32;97616.38;;;25.22;94.90
17635;BME280;8936;49.010;12.120;2023-06-10T12:24:03;97613.44;;;25.34;92.01
17635;BME280;8936;49.010;12.120;2023-06-10T12:26:35;97617.94;;;25.23;90.63
17635;BME280;8936;49.010;12.120;2023-06-10T12:29:02;97619.75;;;24.93;87.94
17635;BME280;8936;49.010;12.120;2023-06-10T12:31:51;97616.53;;;24.87;86.04
17635;BME280;8936;49.010;12.120;2023-06-10T12:34:18;97619.44;;;24.98;83.88
17635;BME280;8936;49.010;12.120;2023-06-10T12:36:47;97613.06;;;25.13;82.02
17635;BME280;8936;49.010;12.120;2023-06-10T12:39:13;97606.25;;;25.26;84.15
17635;BME280;8936;49.010;12.120;2023-06-10T12:41:41;97608.91;;;25.19;87.02
17635;BME280;8936;49.010;12.120;2023-06-10T12:44:13;97601.91;;;25.21;88.64
17635;BME280;8936;49.010;12.120;2023-06-10T12:46:40;97600.59;;;25.38;86.85
17635;BME280;8936;49.010;12.120;2023-06-10T12:49:06;97593.03;;;25.77;83.42
17635;BME280;8936;49.010;12.120;2023-06-10T12:51:32;97594.59;;;26.08;80.00